Time,TemperatureF,DewpointF,PressureIn,WindDirection,WindDirectionDegrees,WindSpeedMPH,WindSpeedGustMPH,Humidity,HourlyPrecipIn,Conditions,Clouds,dailyrainin,SoftwareType,DateUTC
2013-07-25 00:03:00,67.6,55.0,29.98,NW,315,0.0,0.7,64,0.00,,,0.00,pywws,2013-07-24 22:03:00,
2013-07-25 00:13:00,67.6,55.4,29.98,NW,315,0.0,0.7,65,0.00,,,0.00,pywws,2013-07-24 22:13:00,
2013-07-25 00:23:00,67.3,54.7,29.98,NW,315,0.0,0.0,64,0.00,,,0.00,pywws,2013-07-24 22:23:00,
2013-07-25 00:33:00,67.1,54.9,29.98,NW,315,0.0,0.0,65,0.00,,,0.00,pywws,2013-07-24 22:33:00,
2013-07-25 00:43:00,66.6,54.4,29.98,NW,315,0.7,2.2,65,0.00,,,0.00,pywws,2013-07-24 22:43:00,
2013-07-25 00:53:00,66.6,54.4,29.98,NW,315,0.0,1.6,65,0.00,,,0.00,pywws,2013-07-24 22:53:00,
2013-07-25 01:03:00,66.7,55.0,29.99,NW,315,2.2,3.8,66,0.00,,,0.00,pywws,2013-07-24 23:03:00,
2013-07-25 01:13:00,66.7,55.4,29.99,NW,315,2.2,3.1,67,0.00,,,0.00,pywws,2013-07-24 23:13:00,
2013-07-25 01:23:00,66.6,55.3,30.00,NW,315,0.7,1.6,67,0.00,,,0.00,pywws,2013-07-24 23:23:00,
2013-07-25 01:33:00,65.8,55.0,29.99,NW,315,0.0,0.0,68,0.00,,,0.00,pywws,2013-07-24 23:33:00,
2013-07-25 01:43:00,65.5,54.6,29.99,NW,315,0.0,0.0,68,0.00,,,0.00,pywws,2013-07-24 23:43:00,
2013-07-25 01:53:00,65.3,54.9,29.99,NW,315,0.0,0.0,69,0.00,,,0.00,pywws,2013-07-24 23:53:00,
2013-07-25 02:03:00,65.3,55.3,30.00,NW,315,0.7,2.2,70,0.00,,,0.00,pywws,2013-07-25 00:03:00,
2013-07-25 02:13:00,65.3,55.6,30.00,NW,315,0.0,1.6,71,0.00,,,0.00,pywws,2013-07-25 00:13:00,
2013-07-25 02:23:00,65.1,55.5,30.00,NW,315,0.0,0.0,71,0.00,,,0.00,pywws,2013-07-25 00:23:00,
2013-07-25 02:33:00,64.9,55.3,30.01,NW,315,0.0,0.0,71,0.00,,,0.00,pywws,2013-07-25 00:33:00,
2013-07-25 02:43:00,64.8,55.5,30.01,NW,315,0.0,0.0,72,0.00,,,0.00,pywws,2013-07-25 00:43:00,
2013-07-25 02:53:00,64.6,55.3,30.01,NW,315,0.0,0.0,72,0.00,,,0.00,pywws,2013-07-25 00:53:00,
2013-07-25 03:03:00,64.4,55.6,30.01,NW,315,0.0,0.0,73,0.00,,,0.00,pywws,2013-07-25 01:03:00,
2013-07-25 03:13:00,64.4,55.9,30.01,NW,315,0.0,0.0,74,0.00,,,0.00,pywws,2013-07-25 01:13:00,
2013-07-25 03:23:00,64.4,55.6,30.01,NW,315,1.6,3.1,73,0.00,,,0.00,pywws,2013-07-25 01:23:00,
2013-07-25 03:33:00,64.6,55.7,30.01,NW,315,0.7,2.2,73,0.00,,,0.00,pywws,2013-07-25 01:33:00,
2013-07-25 03:43:00,64.9,55.7,30.02,NW,315,0.7,2.2,72,0.00,,,0.00,pywws,2013-07-25 01:43:00,
2013-07-25 03:53:00,65.3,56.0,30.02,NW,315,0.7,3.8,72,0.00,,,0.00,pywws,2013-07-25 01:53:00,
2013-07-25 04:03:00,65.5,56.2,30.02,NW,315,2.2,5.4,72,0.00,,,0.00,pywws,2013-07-25 02:03:00,
2013-07-25 04:13:00,65.7,57.1,30.02,NW,315,0.7,3.1,74,0.01,,,0.01,pywws,2013-07-25 02:13:00,
2013-07-25 04:23:00,64.9,57.5,30.01,NW,315,1.6,3.8,77,0.02,,,0.02,pywws,2013-07-25 02:23:00,
2013-07-25 04:33:00,64.6,58.3,30.02,NW,315,0.0,1.6,80,0.02,,,0.02,pywws,2013-07-25 02:33:00,
2013-07-25 04:43:00,64.6,59.0,30.01,NW,315,0.0,1.6,82,0.04,,,0.04,pywws,2013-07-25 02:43:00,
2013-07-25 04:53:00,64.4,59.1,30.02,NW,315,0.0,2.2,83,0.04,,,0.04,pywws,2013-07-25 02:53:00,
2013-07-25 05:03:00,64.6,59.6,30.02,NW,315,0.0,0.0,84,0.04,,,0.04,pywws,2013-07-25 03:03:00,
2013-07-25 05:13:00,64.4,59.8,30.02,NW,315,0.0,1.6,85,0.04,,,0.05,pywws,2013-07-25 03:13:00,
2013-07-25 05:23:00,64.2,59.9,30.02,NW,315,0.0,0.0,86,0.02,,,0.05,pywws,2013-07-25 03:23:00,
2013-07-25 05:33:00,64.2,60.3,30.03,NW,315,0.0,0.7,87,0.02,,,0.05,pywws,2013-07-25 03:33:00,
2013-07-25 05:43:00,64.0,60.1,30.02,NW,315,0.0,0.0,87,0.01,,,0.05,pywws,2013-07-25 03:43:00,
2013-07-25 05:53:00,64.0,60.4,30.03,NW,315,0.0,0.0,88,0.01,,,0.05,pywws,2013-07-25 03:53:00,
2013-07-25 06:03:00,64.0,60.7,30.03,NW,315,0.0,0.0,89,0.01,,,0.05,pywws,2013-07-25 04:03:00,
2013-07-25 06:13:00,64.2,60.9,30.03,NW,315,0.0,0.0,89,0.00,,,0.05,pywws,2013-07-25 04:13:00,
2013-07-25 06:23:00,64.2,61.2,30.03,NW,315,0.0,0.0,90,0.00,,,0.05,pywws,2013-07-25 04:23:00,
2013-07-25 06:33:00,64.4,61.4,30.03,NW,315,0.0,0.7,90,0.00,,,0.05,pywws,2013-07-25 04:33:00,
2013-07-25 06:43:00,64.6,61.9,30.03,NW,315,0.0,0.7,91,0.00,,,0.05,pywws,2013-07-25 04:43:00,
2013-07-25 06:53:00,64.9,62.2,30.04,NW,315,0.0,1.6,91,0.01,,,0.06,pywws,2013-07-25 04:53:00,
2013-07-25 07:03:00,65.1,62.4,30.04,NW,315,0.0,0.0,91,0.01,,,0.06,pywws,2013-07-25 05:03:00,
2013-07-25 07:13:00,65.1,62.4,30.04,NW,315,0.0,0.0,91,0.01,,,0.06,pywws,2013-07-25 05:13:00,
2013-07-25 07:23:00,65.3,62.9,30.05,NW,315,0.0,0.7,92,0.01,,,0.06,pywws,2013-07-25 05:23:00,
2013-07-25 07:33:00,65.7,63.3,30.05,NW,315,0.0,1.6,92,0.01,,,0.06,pywws,2013-07-25 05:33:00,
2013-07-25 07:43:00,66.4,64.0,30.04,NW,315,0.0,0.7,92,0.01,,,0.06,pywws,2013-07-25 05:43:00,
2013-07-25 07:53:00,67.1,64.7,30.05,NW,315,1.6,3.8,92,0.00,,,0.06,pywws,2013-07-25 05:53:00,
2013-07-25 08:03:00,67.6,65.2,30.04,NW,315,0.0,1.6,92,0.00,,,0.06,pywws,2013-07-25 06:03:00,
2013-07-25 08:13:00,69.4,66.7,30.05,NW,315,3.1,3.8,91,0.00,,,0.06,pywws,2013-07-25 06:13:00,
2013-07-25 08:23:00,70.7,67.3,30.04,NW,315,3.1,4.5,89,0.00,,,0.06,pywws,2013-07-25 06:23:00,
2013-07-25 08:33:00,71.2,66.8,30.04,NW,315,1.6,3.1,86,0.00,,,0.06,pywws,2013-07-25 06:33:00,
2013-07-25 08:43:00,75.4,70.2,30.04,NW,315,2.2,4.5,84,0.00,,,0.06,pywws,2013-07-25 06:43:00,
2013-07-25 08:53:00,80.1,71.8,30.04,NW,315,3.1,5.4,76,0.00,,,0.06,pywws,2013-07-25 06:53:00,
2013-07-25 09:03:00,80.4,71.0,30.05,NW,315,0.7,1.6,73,0.00,,,0.06,pywws,2013-07-25 07:03:00,
2013-07-25 09:13:00,77.5,67.8,30.05,NW,315,2.2,3.1,72,0.00,,,0.06,pywws,2013-07-25 07:13:00,
2013-07-25 09:23:00,77.9,68.5,30.04,NW,315,3.1,5.4,73,0.00,,,0.06,pywws,2013-07-25 07:23:00,
2013-07-25 09:33:00,80.8,70.1,30.04,NW,315,1.6,3.1,70,0.00,,,0.06,pywws,2013-07-25 07:33:00,
2013-07-25 09:43:00,82.2,70.1,30.04,NW,315,4.5,6.9,67,0.01,,,0.07,pywws,2013-07-25 07:43:00,
2013-07-25 09:53:00,82.0,69.5,30.04,NW,315,3.1,6.0,66,0.01,,,0.07,pywws,2013-07-25 07:53:00,
2013-07-25 10:03:00,80.6,68.2,30.04,NW,315,3.8,5.4,66,0.01,,,0.07,pywws,2013-07-25 08:03:00,
2013-07-25 10:13:00,79.5,67.6,30.04,NW,315,4.5,6.0,67,0.01,,,0.07,pywws,2013-07-25 08:13:00,
2013-07-25 10:23:00,79.3,67.0,30.04,NW,315,3.8,6.0,66,0.01,,,0.07,pywws,2013-07-25 08:23:00,
2013-07-25 10:33:00,79.7,67.3,30.04,NW,315,0.0,1.6,66,0.01,,,0.07,pywws,2013-07-25 08:33:00,
2013-07-25 10:43:00,80.8,67.9,30.04,NW,315,3.8,5.4,65,0.00,,,0.07,pywws,2013-07-25 08:43:00,
2013-07-25 10:53:00,80.4,67.1,30.04,NW,315,2.2,4.5,64,0.00,,,0.07,pywws,2013-07-25 08:53:00,
2013-07-25 11:03:00,79.9,66.6,30.04,NW,315,5.4,7.6,64,0.00,,,0.07,pywws,2013-07-25 09:03:00,
2013-07-25 11:13:00,79.9,67.5,30.04,NW,315,0.7,2.2,66,0.00,,,0.07,pywws,2013-07-25 09:13:00,
2013-07-25 11:23:00,81.3,68.0,30.05,NW,315,0.7,2.2,64,0.00,,,0.07,pywws,2013-07-25 09:23:00,
2013-07-25 11:33:00,81.7,67.8,30.04,NW,315,1.6,3.8,63,0.00,,,0.07,pywws,2013-07-25 09:33:00,
2013-07-25 11:43:00,82.0,68.2,30.04,NW,315,1.6,3.8,63,0.00,,,0.07,pywws,2013-07-25 09:43:00,
2013-07-25 11:53:00,82.2,67.9,30.04,NW,315,0.7,2.2,62,0.00,,,0.07,pywws,2013-07-25 09:53:00,
2013-07-25 12:03:00,82.0,67.7,30.04,NW,315,0.7,2.2,62,0.00,,,0.07,pywws,2013-07-25 10:03:00,
2013-07-25 12:13:00,82.2,67.9,30.04,NW,315,4.5,6.9,62,0.00,,,0.07,pywws,2013-07-25 10:13:00,
2013-07-25 12:23:00,82.4,67.1,30.04,NW,315,3.1,6.9,60,0.00,,,0.07,pywws,2013-07-25 10:23:00,
2013-07-25 12:33:00,82.0,66.8,30.04,NW,315,1.6,3.8,60,0.00,,,0.07,pywws,2013-07-25 10:33:00,
2013-07-25 12:43:00,81.7,66.4,30.04,NW,315,3.1,5.4,60,0.00,,,0.07,pywws,2013-07-25 10:43:00,
2013-07-25 12:53:00,81.7,65.9,30.04,NW,315,1.6,3.8,59,0.00,,,0.07,pywws,2013-07-25 10:53:00,
2013-07-25 13:03:00,81.9,66.1,30.04,NW,315,3.1,5.4,59,0.00,,,0.07,pywws,2013-07-25 11:03:00,
2013-07-25 13:13:00,82.6,66.8,30.04,NW,315,2.2,4.5,59,0.00,,,0.07,pywws,2013-07-25 11:13:00,
2013-07-25 13:23:00,82.4,66.6,30.04,NW,315,2.2,7.6,59,0.00,,,0.07,pywws,2013-07-25 11:23:00,
2013-07-25 13:33:00,81.7,66.4,30.04,NW,315,4.5,9.2,60,0.00,,,0.07,pywws,2013-07-25 11:33:00,
2013-07-25 13:43:00,81.7,66.9,30.03,NW,315,0.7,1.6,61,0.00,,,0.07,pywws,2013-07-25 11:43:00,
2013-07-25 14:03:00,82.0,66.8,30.04,NW,315,3.1,7.6,60,0.00,,,0.07,pywws,2013-07-25 12:03:00,
2013-07-25 14:13:00,83.3,68.9,30.03,NW,315,3.1,6.0,62,0.00,,,0.07,pywws,2013-07-25 12:13:00,
2013-07-25 14:23:00,81.9,66.6,30.03,NW,315,1.6,3.8,60,0.00,,,0.07,pywws,2013-07-25 12:23:00,
2013-07-25 14:33:00,81.3,66.1,30.03,NW,315,2.2,5.4,60,0.00,,,0.07,pywws,2013-07-25 12:33:00,
2013-07-25 14:43:00,82.0,66.8,30.03,NW,315,3.8,5.4,60,0.00,,,0.07,pywws,2013-07-25 12:43:00,
2013-07-25 14:53:00,82.9,66.6,30.03,NW,315,1.6,3.1,58,0.00,,,0.07,pywws,2013-07-25 12:53:00,
2013-07-25 15:03:00,82.6,66.3,30.03,NW,315,3.1,5.4,58,0.00,,,0.07,pywws,2013-07-25 13:03:00,
2013-07-25 15:13:00,81.9,66.1,30.03,NW,315,3.8,7.6,59,0.00,,,0.07,pywws,2013-07-25 13:13:00,
2013-07-25 15:23:00,82.0,66.3,30.03,NW,315,4.5,7.6,59,0.00,,,0.07,pywws,2013-07-25 13:23:00,
2013-07-25 15:33:00,80.8,65.6,30.03,NW,315,1.6,3.8,60,0.00,,,0.07,pywws,2013-07-25 13:33:00,
2013-07-25 15:43:00,81.0,65.7,30.02,NW,315,1.6,3.1,60,0.00,,,0.07,pywws,2013-07-25 13:43:00,
2013-07-25 15:53:00,80.6,65.9,30.02,NW,315,1.6,3.1,61,0.00,,,0.07,pywws,2013-07-25 13:53:00,
2013-07-25 16:03:00,81.0,66.2,30.03,NW,315,1.6,4.5,61,0.00,,,0.07,pywws,2013-07-25 14:03:00,
2013-07-25 16:13:00,81.0,65.7,30.02,NW,315,1.6,3.8,60,0.00,,,0.07,pywws,2013-07-25 14:13:00,
2013-07-25 16:23:00,81.3,66.6,30.02,NW,315,1.6,3.8,61,0.00,,,0.07,pywws,2013-07-25 14:23:00,
2013-07-25 16:33:00,81.9,66.1,30.02,NW,315,3.8,6.0,59,0.00,,,0.07,pywws,2013-07-25 14:33:00,
2013-07-25 16:43:00,81.7,65.9,30.02,NW,315,3.1,6.0,59,0.00,,,0.07,pywws,2013-07-25 14:43:00,
2013-07-25 16:53:00,81.9,66.6,30.02,NW,315,2.2,4.5,60,0.00,,,0.07,pywws,2013-07-25 14:53:00,
2013-07-25 17:03:00,82.4,66.1,30.02,NW,315,4.5,6.9,58,0.00,,,0.07,pywws,2013-07-25 15:03:00,
2013-07-25 17:13:00,82.8,65.9,30.02,NW,315,0.7,3.1,57,0.00,,,0.07,pywws,2013-07-25 15:13:00,
2013-07-25 17:23:00,82.6,65.3,30.02,NW,315,4.5,6.9,56,0.00,,,0.07,pywws,2013-07-25 15:23:00,
2013-07-25 17:33:00,82.4,65.1,30.01,NW,315,3.1,6.0,56,0.00,,,0.07,pywws,2013-07-25 15:33:00,
2013-07-25 17:43:00,82.8,65.4,30.02,NW,315,0.7,1.6,56,0.00,,,0.07,pywws,2013-07-25 15:43:00,
2013-07-25 17:53:00,83.1,65.3,30.02,NW,315,2.2,5.4,55,0.00,,,0.07,pywws,2013-07-25 15:53:00,
2013-07-25 18:03:00,83.3,65.4,30.01,NW,315,2.2,4.5,55,0.00,,,0.07,pywws,2013-07-25 16:03:00,
2013-07-25 18:13:00,83.3,64.9,30.01,NW,315,1.6,3.8,54,0.00,,,0.07,pywws,2013-07-25 16:13:00,
2013-07-25 18:23:00,82.8,64.9,30.01,NW,315,2.2,3.8,55,0.00,,,0.07,pywws,2013-07-25 16:23:00,
2013-07-25 18:33:00,82.8,64.9,30.01,NW,315,2.2,5.4,55,0.00,,,0.07,pywws,2013-07-25 16:33:00,
2013-07-25 18:43:00,82.2,64.4,30.01,NW,315,2.2,6.0,55,0.00,,,0.07,pywws,2013-07-25 16:43:00,
2013-07-25 18:53:00,81.9,64.6,30.01,NW,315,0.7,3.1,56,0.00,,,0.07,pywws,2013-07-25 16:53:00,
2013-07-25 19:03:00,81.7,64.4,30.01,NW,315,3.8,5.4,56,0.00,,,0.07,pywws,2013-07-25 17:03:00,
2013-07-25 19:13:00,81.1,63.9,30.02,NW,315,1.6,3.1,56,0.00,,,0.07,pywws,2013-07-25 17:13:00,
2013-07-25 19:23:00,80.8,64.1,30.02,NW,315,1.6,3.8,57,0.00,,,0.07,pywws,2013-07-25 17:23:00,
2013-07-25 19:33:00,80.2,64.1,30.02,NW,315,2.2,3.8,58,0.00,,,0.07,pywws,2013-07-25 17:33:00,
2013-07-25 19:43:00,79.9,63.8,30.02,NW,315,0.7,1.6,58,0.00,,,0.07,pywws,2013-07-25 17:43:00,
2013-07-25 19:53:00,79.5,63.9,30.02,NW,315,0.0,1.6,59,0.00,,,0.07,pywws,2013-07-25 17:53:00,
2013-07-25 20:03:00,79.3,64.2,30.01,NW,315,0.7,1.6,60,0.00,,,0.07,pywws,2013-07-25 18:03:00,
2013-07-25 20:13:00,78.6,64.5,30.01,NW,315,0.0,0.0,62,0.00,,,0.07,pywws,2013-07-25 18:13:00,
2013-07-25 20:23:00,77.9,64.7,30.02,NW,315,0.0,0.7,64,0.00,,,0.07,pywws,2013-07-25 18:23:00,
2013-07-25 20:33:00,76.6,64.4,30.01,NW,315,0.0,0.0,66,0.00,,,0.07,pywws,2013-07-25 18:33:00,
2013-07-25 20:43:00,75.6,64.2,30.02,NW,315,0.0,0.0,68,0.00,,,0.07,pywws,2013-07-25 18:43:00,
2013-07-25 20:53:00,74.7,63.8,30.03,NW,315,0.0,0.7,69,0.00,,,0.07,pywws,2013-07-25 18:53:00,
2013-07-25 21:03:00,73.9,63.9,30.03,NW,315,0.0,0.0,71,0.00,,,0.07,pywws,2013-07-25 19:03:00,
2013-07-25 21:13:00,72.9,63.7,30.03,NW,315,0.0,0.0,73,0.00,,,0.07,pywws,2013-07-25 19:13:00,
2013-07-25 21:23:00,72.1,63.4,30.04,NW,315,0.0,0.0,74,0.00,,,0.07,pywws,2013-07-25 19:23:00,
2013-07-25 21:33:00,71.4,63.4,30.04,NW,315,0.0,0.0,76,0.00,,,0.07,pywws,2013-07-25 19:33:00,
2013-07-25 21:43:00,70.9,63.3,30.04,NW,315,0.0,0.0,77,0.00,,,0.07,pywws,2013-07-25 19:43:00,
2013-07-25 21:53:00,70.2,63.0,30.04,NW,315,0.0,0.7,78,0.00,,,0.07,pywws,2013-07-25 19:53:00,
2013-07-25 22:03:00,69.8,62.6,30.04,NW,315,0.0,0.0,78,0.00,,,0.07,pywws,2013-07-25 20:03:00,
2013-07-25 22:13:00,69.3,62.5,30.04,NW,315,0.0,0.0,79,0.00,,,0.07,pywws,2013-07-25 20:13:00,
2013-07-25 22:23:00,68.9,62.5,30.04,NW,315,0.0,0.0,80,0.00,,,0.07,pywws,2013-07-25 20:23:00,
2013-07-25 22:33:00,68.4,62.3,30.04,NW,315,0.0,0.0,81,0.00,,,0.07,pywws,2013-07-25 20:33:00,
2013-07-25 22:43:00,68.0,61.9,30.04,NW,315,0.0,0.0,81,0.00,,,0.07,pywws,2013-07-25 20:43:00,
2013-07-25 22:53:00,67.6,61.9,30.04,NW,315,0.0,0.0,82,0.00,,,0.07,pywws,2013-07-25 20:53:00,
2013-07-25 23:03:00,67.5,62.1,30.04,NW,315,0.0,0.0,83,0.00,,,0.07,pywws,2013-07-25 21:03:00,
2013-07-25 23:13:00,66.9,61.6,30.04,NW,315,0.0,0.0,83,0.00,,,0.07,pywws,2013-07-25 21:13:00,
2013-07-25 23:23:00,66.4,61.4,30.04,NW,315,0.7,1.6,84,0.00,,,0.07,pywws,2013-07-25 21:23:00,
2013-07-25 23:33:00,66.2,61.6,30.04,NW,315,0.0,0.0,85,0.00,,,0.07,pywws,2013-07-25 21:33:00,
2013-07-25 23:43:00,65.8,61.2,30.04,NW,315,0.0,0.0,85,0.00,,,0.07,pywws,2013-07-25 21:43:00,
2013-07-25 23:53:00,65.5,60.8,30.04,NW,315,0.0,0.0,85,0.00,,,0.07,pywws,2013-07-25 21:53:00,